sensor_id;sensor_type;location;lat;lon;timestamp;temperature;humidity
8664;DHT22;4369;47.842;13.096;2022-12-07T03:31:17;4.30;99.90
8664;DHT22;4369;47.842;13.096;2022-12-07T03:33:52;4.20;99.90
8664;DHT22;4369;47.842;13.096;2022-12-07T03:49:23;4.50;99.90
8664;DHT22;4369;47.842;13.096;2022-12-07T04:02:07;4.30;99.90
8664;DHT22;4369;47.842;13.096;2022-12-07T04:04:37;4.30;99.90
8664;DHT22;4369;47.842;13.096;2022-12-07T04:07:04;4.30;99.90
8664;DHT22;4369;47.842;13.096;2022-12-07T04:09:31;4.30;99.90
8664;DHT22;4369;47.842;13.096;2022-12-07T04:11:57;4.30;99.90
8664;DHT22;4369;47.842;13.096;2022-12-07T04:14:25;4.20;99.90
8664;DHT22;4369;47.842;13.096;2022-12-07T04:16:53;4.30;99.90
8664;DHT22;4369;47.842;13.096;2022-12-07T04:19:25;4.40;99.90
8664;DHT22;4369;47.842;13.096;2022-12-07T04:21:53;4.40;99.90
8664;DHT22;4369;47.842;13.096;2022-12-07T04:24:20;4.30;99.90
8664;DHT22;4369;47.842;13.096;2022-12-07T04:26:48;4.30;99.90
8664;DHT22;4369;47.842;13.096;2022-12-07T04:29:15;4.20;99.90
8664;DHT22;4369;47.842;13.096;2022-12-07T04:31:42;4.20;99.90
8664;DHT22;4369;47.842;13.096;2022-12-07T04:34:10;4.30;99.90
8664;DHT22;4369;47.842;13.096;2022-12-07T04:36:37;4.30;99.90
8664;DHT22;4369;47.842;13.096;2022-12-07T04:39:06;4.30;99.90
8664;DHT22;4369;47.842;13.096;2022-12-07T04:41:33;4.30;99.90
8664;DHT22;4369;47.842;13.096;2022-12-07T04:44:02;4.40;99.90
8664;DHT22;4369;47.842;13.096;2022-12-07T04:46:30;4.50;99.90
8664;DHT22;4369;47.842;13.096;2022-12-07T04:48:58;4.50;99.90
8664;DHT22;4369;47.842;13.096;2022-12-07T04:51:27;4.50;99.90
8664;DHT22;4369;47.842;13.096;2022-12-07T04:53:55;4.60;99.90
8664;DHT22;4369;47.842;13.096;2022-12-07T04:56:24;4.60;99.90
8664;DHT22;4369;47.842;13.096;2022-12-07T04:58:52;4.50;99.90
8664;DHT22;4369;47.842;13.096;2022-12-07T05:01:19;4.40;99.90
8664;DHT22;4369;47.842;13.096;2022-12-07T05:03:46;4.40;99.90
8664;DHT22;4369;47.842;13.096;2022-12-07T05:06:13;4.30;99.90
8664;DHT22;4369;47.842;13.096;2022-12-07T05:08:40;4.30;99.90
8664;DHT22;4369;47.842;13.096;2022-12-07T05:11:07;4.30;99.90
8664;DHT22;4369;47.842;13.096;2022-12-07T05:13:36;4.30;99.90
8664;DHT22;4369;47.842;13.096;2022-12-07T05:16:03;4.30;99.90
8664;DHT22;4369;47.842;13.096;2022-12-07T05:18:30;4.30;99.90
8664;DHT22;4369;47.842;13.096;2022-12-07T05:20:57;4.30;99.90
8664;DHT22;4369;47.842;13.096;2022-12-07T05:23:24;4.30;99.90
8664;DHT22;4369;47.842;13.096;2022-12-07T05:25:50;4.30;99.90
8664;DHT22;4369;47.842;13.096;2022-12-07T05:28:17;4.40;99.90
8664;DHT22;4369;47.842;13.096;2022-12-07T05:30:45;4.40;99.90
8664;DHT22;4369;47.842;13.096;2022-12-07T05:33:12;4.40;99.90
8664;DHT22;4369;47.842;13.096;2022-12-07T05:35:39;4.40;99.90
8664;DHT22;4369;47.842;13.096;2022-12-07T05:38:06;4.50;99.90
8664;DHT22;4369;47.842;13.096;2022-12-07T05:40:32;4.40;99.90
8664;DHT22;4369;47.842;13.096;2022-12-07T05:45:36;4.40;99.90
8664;DHT22;4369;47.842;13.096;2022-12-07T05:48:08;4.40;99.90
8664;DHT22;4369;47.842;13.096;2022-12-07T05:50:35;4.30;99.90
8664;DHT22;4369;47.842;13.096;2022-12-07T05:53:02;4.30;99.90
8664;DHT22;4369;47.842;13.096;2022-12-07T05:55:29;4.20;99.90
8664;DHT22;4369;47.842;13.096;2022-12-07T05:58:08;4.30;99.90
8664;DHT22;4369;47.842;13.096;2022-12-07T06:00:54;4.30;99.90
8664;DHT22;4369;47.842;13.096;2022-12-07T06:03:22;4.30;99.90
8664;DHT22;4369;47.842;13.096;2022-12-07T06:05:49;4.30;99.90
8664;DHT22;4369;47.842;13.096;2022-12-07T06:08:16;4.30;99.90
8664;DHT22;4369;47.842;13.096;2022-12-07T06:10:43;4.30;99.90
8664;DHT22;4369;47.842;13.096;2022-12-07T06:13:09;4.40;99.90
8664;DHT22;4369;47.842;13.096;2022-12-07T06:15:35;4.30;99.90
8664;DHT22;4369;47.842;13.096;2022-12-07T06:18:02;4.30;99.90
8664;DHT22;4369;47.842;13.096;2022-12-07T06:20:31;4.20;99.90
8664;DHT22;4369;47.842;13.096;2022-12-07T06:22:57;4.20;99.90
8664;DHT22;4369;47.842;13.096;2022-12-07T06:25:24;4.30;99.90
8664;DHT22;4369;47.842;13.096;2022-12-07T06:38:04;4.20;99.90
8664;DHT22;4369;47.842;13.096;2022-12-07T11:08:51;4.20;99.90
8664;DHT22;4369;47.842;13.096;2022-12-07T11:11:26;4.30;99.90
8664;DHT22;4369;47.842;13.096;2022-12-07T11:23:50;4.50;99.90
8664;DHT22;4369;47.842;13.096;2022-12-07T11:26:31;4.50;99.90
8664;DHT22;4369;47.842;13.096;2022-12-07T11:29:21;4.50;99.90
8664;DHT22;4369;47.842;13.096;2022-12-07T11:32:00;4.50;99.90
8664;DHT22;4369;47.842;13.096;2022-12-07T11:34:38;4.60;99.90
8664;DHT22;4369;47.842;13.096;2022-12-07T11:37:09;4.60;99.90
8664;DHT22;4369;47.842;13.096;2022-12-07T11:39:46;4.50;99.90
8664;DHT22;4369;47.842;13.096;2022-12-07T11:42:25;4.50;99.90
8664;DHT22;4369;47.842;13.096;2022-12-07T11:44:59;4.50;99.90
8664;DHT22;4369;47.842;13.096;2022-12-07T11:47:38;4.40;99.90
8664;DHT22;4369;47.842;13.096;2022-12-07T11:55:18;4.70;99.90
8664;DHT22;4369;47.842;13.096;2022-12-07T12:10:22;4.80;99.90
8664;DHT22;4369;47.842;13.096;2022-12-07T12:13:12;4.90;99.90
8664;DHT22;4369;47.842;13.096;2022-12-07T12:15:57;5.00;99.90
8664;DHT22;4369;47.842;13.096;2022-12-07T12:21:22;5.20;99.90
8664;DHT22;4369;47.842;13.096;2022-12-07T12:23:54;5.20;99.90
8664;DHT22;4369;47.842;13.096;2022-12-07T12:26:26;5.10;99.90
8664;DHT22;4369;47.842;13.096;2022-12-07T12:28:56;5.10;99.90
8664;DHT22;4369;47.842;13.096;2022-12-07T12:31:33;5.10;99.90
8664;DHT22;4369;47.842;13.096;2022-12-07T12:37:41;5.20;99.90
8664;DHT22;4369;47.842;13.096;2022-12-07T12:40:39;5.20;99.90
8664;DHT22;4369;47.842;13.096;2022-12-07T12:49:37;5.20;99.90
8664;DHT22;4369;47.842;13.096;2022-12-07T12:58:31;5.60;99.90
8664;DHT22;4369;47.842;13.096;2022-12-07T13:52:43;5.80;99.90
8664;DHT22;4369;47.842;13.096;2022-12-07T13:55:15;5.60;99.90
8664;DHT22;4369;47.842;13.096;2022-12-07T13:57:44;5.70;99.90
8664;DHT22;4369;47.842;13.096;2022-12-07T14:02:54;5.80;99.90
8664;DHT22;4369;47.842;13.096;2022-12-07T14:05:25;5.80;99.90
8664;DHT22;4369;47.842;13.096;2022-12-07T14:07:56;5.70;99.90
8664;DHT22;4369;47.842;13.096;2022-12-07T14:10:25;5.70;99.90
8664;DHT22;4369;47.842;13.096;2022-12-07T14:12:52;5.70;99.90
8664;DHT22;4369;47.842;13.096;2022-12-07T14:15:24;5.70;99.90
8664;DHT22;4369;47.842;13.096;2022-12-07T14:17:54;5.70;99.90
8664;DHT22;4369;47.842;13.096;2022-12-07T14:20:31;5.50;99.90
8664;DHT22;4369;47.842;13.096;2022-12-07T14:23:01;5.50;99.90
8664;DHT22;4369;47.842;13.096;2022-12-07T14:25:45;5.50;99.90
8664;DHT22;4369;47.842;13.096;2022-12-07T14:28:25;5.50;99.90
8664;DHT22;4369;47.842;13.096;2022-12-07T14:30:53;5.50;99.90
8664;DHT22;4369;47.842;13.096;2022-12-07T14:33:24;5.50;99.90
8664;DHT22;4369;47.842;13.096;2022-12-07T14:36:08;5.50;99.90
8664;DHT22;4369;47.842;13.096;2022-12-07T14:38:38;5.40;99.90
8664;DHT22;4369;47.842;13.096;2022-12-07T14:41:10;5.30;99.90
8664;DHT22;4369;47.842;13.096;2022-12-07T14:43:57;5.30;99.90
8664;DHT22;4369;47.842;13.096;2022-12-07T15:27:55;4.90;99.90
8664;DHT22;4369;47.842;13.096;2022-12-07T15:32:57;4.90;99.90
8664;DHT22;4369;47.842;13.096;2022-12-07T15:35:24;4.90;99.90
8664;DHT22;4369;47.842;13.096;2022-12-07T15:45:39;4.80;99.90
8664;DHT22;4369;47.842;13.096;2022-12-07T15:48:06;4.70;99.90
8664;DHT22;4369;47.842;13.096;2022-12-07T15:50:32;4.70;99.90
8664;DHT22;4369;47.842;13.096;2022-12-07T15:52:59;4.70;99.90
8664;DHT22;4369;47.842;13.096;2022-12-07T15:55:26;4.70;99.90
8664;DHT22;4369;47.842;13.096;2022-12-07T16:00:19;4.50;99.90
8664;DHT22;4369;47.842;13.096;2022-12-07T16:05:23;4.50;99.90
8664;DHT22;4369;47.842;13.096;2022-12-07T16:07:50;4.40;99.90
8664;DHT22;4369;47.842;13.096;2022-12-07T16:10:17;4.50;99.90
8664;DHT22;4369;47.842;13.096;2022-12-07T16:12:44;4.40;99.90
8664;DHT22;4369;47.842;13.096;2022-12-07T16:15:11;4.40;99.90
8664;DHT22;4369;47.842;13.096;2022-12-07T16:17:38;4.40;99.90
8664;DHT22;4369;47.842;13.096;2022-12-07T16:20:06;4.40;99.90
8664;DHT22;4369;47.842;13.096;2022-12-07T16:30:13;4.30;99.90
8664;DHT22;4369;47.842;13.096;2022-12-07T16:32:41;4.20;99.90
8664;DHT22;4369;47.842;13.096;2022-12-07T16:35:09;4.10;99.90
8664;DHT22;4369;47.842;13.096;2022-12-07T16:37:36;4.00;99.90
8664;DHT22;4369;47.842;13.096;2022-12-07T16:40:04;3.90;99.90
8664;DHT22;4369;47.842;13.096;2022-12-07T16:45:15;3.80;99.90
8664;DHT22;4369;47.842;13.096;2022-12-07T16:47:42;3.90;99.90
8664;DHT22;4369;47.842;13.096;2022-12-07T16:50:09;3.90;99.90
8664;DHT22;4369;47.842;13.096;2022-12-07T16:55:08;3.90;99.90
8664;DHT22;4369;47.842;13.096;2022-12-07T16:57:41;4.00;99.90
8664;DHT22;4369;47.842;13.096;2022-12-07T17:00:10;4.00;99.90
8664;DHT22;4369;47.842;13.096;2022-12-07T17:02:45;4.00;99.90
8664;DHT22;4369;47.842;13.096;2022-12-07T17:05:13;4.00;99.90
8664;DHT22;4369;47.842;13.096;2022-12-07T17:07:40;4.00;99.90
8664;DHT22;4369;47.842;13.096;2022-12-07T17:10:09;4.10;99.90
8664;DHT22;4369;47.842;13.096;2022-12-07T17:12:36;4.10;99.90
8664;DHT22;4369;47.842;13.096;2022-12-07T17:15:05;4.10;99.90
8664;DHT22;4369;47.842;13.096;2022-12-07T17:17:45;4.00;99.90
8664;DHT22;4369;47.842;13.096;2022-12-07T17:20:13;4.00;99.90
8664;DHT22;4369;47.842;13.096;2022-12-07T17:22:42;4.00;99.90
8664;DHT22;4369;47.842;13.096;2022-12-07T17:25:09;3.90;99.90
8664;DHT22;4369;47.842;13.096;2022-12-07T17:27:37;3.90;99.90
8664;DHT22;4369;47.842;13.096;2022-12-07T17:30:05;4.00;99.90
8664;DHT22;4369;47.842;13.096;2022-12-07T17:32:34;3.90;99.90
8664;DHT22;4369;47.842;13.096;2022-12-07T17:35:04;3.80;99.90
8664;DHT22;4369;47.842;13.096;2022-12-07T17:37:33;3.80;99.90
8664;DHT22;4369;47.842;13.096;2022-12-07T17:40:01;3.90;99.90
8664;DHT22;4369;47.842;13.096;2022-12-07T17:42:30;3.90;99.90
8664;DHT22;4369;47.842;13.096;2022-12-07T17:45:06;4.00;99.90
8664;DHT22;4369;47.842;13.096;2022-12-07T17:47:35;4.00;99.90
8664;DHT22;4369;47.842;13.096;2022-12-07T17:50:06;4.00;99.90
8664;DHT22;4369;47.842;13.096;2022-12-07T17:52:33;4.00;99.90
8664;DHT22;4369;47.842;13.096;2022-12-07T17:58:09;4.10;99.90
8664;DHT22;4369;47.842;13.096;2022-12-07T18:03:19;4.00;99.90
8664;DHT22;4369;47.842;13.096;2022-12-07T18:05:55;4.10;99.90
8664;DHT22;4369;47.842;13.096;2022-12-07T18:08:24;4.10;99.90
8664;DHT22;4369;47.842;13.096;2022-12-07T18:10:59;4.10;99.90
8664;DHT22;4369;47.842;13.096;2022-12-07T18:13:39;4.10;99.90
8664;DHT22;4369;47.842;13.096;2022-12-07T18:16:24;4.00;99.90
8664;DHT22;4369;47.842;13.096;2022-12-07T18:19:07;3.90;99.90
8664;DHT22;4369;47.842;13.096;2022-12-07T18:21:40;4.00;99.90
8664;DHT22;4369;47.842;13.096;2022-12-07T18:24:16;4.00;99.90
8664;DHT22;4369;47.842;13.096;2022-12-07T18:26:51;3.90;99.90
8664;DHT22;4369;47.842;13.096;2022-12-07T18:29:26;3.90;99.90
8664;DHT22;4369;47.842;13.096;2022-12-07T18:32:13;4.00;99.90
8664;DHT22;4369;47.842;13.096;2022-12-07T18:34:47;3.90;99.90
8664;DHT22;4369;47.842;13.096;2022-12-07T18:37:21;3.90;99.90
8664;DHT22;4369;47.842;13.096;2022-12-07T18:39:53;3.90;99.90
8664;DHT22;4369;47.842;13.096;2022-12-07T18:42:20;3.90;99.90
8664;DHT22;4369;47.842;13.096;2022-12-07T18:44:47;4.00;99.90
8664;DHT22;4369;47.842;13.096;2022-12-07T18:47:14;4.10;99.90
8664;DHT22;4369;47.842;13.096;2022-12-07T18:49:41;4.10;99.90
8664;DHT22;4369;47.842;13.096;2022-12-07T18:52:11;4.10;99.90
8664;DHT22;4369;47.842;13.096;2022-12-07T18:54:43;4.10;99.90
8664;DHT22;4369;47.842;13.096;2022-12-07T18:57:10;4.00;99.90
8664;DHT22;4369;47.842;13.096;2022-12-07T18:59:39;4.00;99.90
8664;DHT22;4369;47.842;13.096;2022-12-07T19:02:14;4.00;99.90
8664;DHT22;4369;47.842;13.096;2022-12-07T19:07:08;4.00;99.90
8664;DHT22;4369;47.842;13.096;2022-12-07T19:09:37;4.10;99.90
8664;DHT22;4369;47.842;13.096;2022-12-07T19:53:26;3.80;99.90
8664;DHT22;4369;47.842;13.096;2022-12-07T19:55:53;3.90;99.90
